sensor_id;sensor_type;location;lat;lon;timestamp;P1;durP1;ratioP1;P2;durP2;ratioP2
70148;SDS011;57514;52.164;5.282;2022-11-20T00:01:32;27.17;;;13.15;;
70148;SDS011;57514;52.164;5.282;2022-11-20T00:03:59;32.50;;;14.50;;
70148;SDS011;57514;52.164;5.282;2022-11-20T00:06:27;23.98;;;9.95;;
70148;SDS011;57514;52.164;5.282;2022-11-20T00:08:55;21.80;;;11.18;;
70148;SDS011;57514;52.164;5.282;2022-11-20T00:11:23;26.83;;;12.55;;
70148;SDS011;57514;52.164;5.282;2022-11-20T00:13:52;23.05;;;10.00;;
70148;SDS011;57514;52.164;5.282;2022-11-20T00:16:20;24.60;;;11.50;;
70148;SDS011;57514;52.164;5.282;2022-11-20T00:18:48;23.10;;;12.57;;
70148;SDS011;57514;52.164;5.282;2022-11-20T00:21:16;24.95;;;11.02;;
70148;SDS011;57514;52.164;5.282;2022-11-20T00:23:44;19.65;;;7.90;;
70148;SDS011;57514;52.164;5.282;2022-11-20T00:26:15;11.68;;;5.47;;
70148;SDS011;57514;52.164;5.282;2022-11-20T00:28:43;24.98;;;12.13;;
70148;SDS011;57514;52.164;5.282;2022-11-20T00:31:11;21.85;;;11.05;;
70148;SDS011;57514;52.164;5.282;2022-11-20T00:33:39;22.15;;;10.40;;
70148;SDS011;57514;52.164;5.282;2022-11-20T00:36:08;23.35;;;10.93;;
70148;SDS011;57514;52.164;5.282;2022-11-20T00:38:35;23.02;;;10.32;;
70148;SDS011;57514;52.164;5.282;2022-11-20T00:41:07;24.60;;;11.52;;
70148;SDS011;57514;52.164;5.282;2022-11-20T00:43:35;19.90;;;9.98;;
70148;SDS011;57514;52.164;5.282;2022-11-20T00:46:04;24.55;;;11.07;;
70148;SDS011;57514;52.164;5.282;2022-11-20T00:48:34;23.70;;;11.30;;
70148;SDS011;57514;52.164;5.282;2022-11-20T00:51:02;16.92;;;8.68;;
70148;SDS011;57514;52.164;5.282;2022-11-20T00:53:29;22.10;;;10.05;;
70148;SDS011;57514;52.164;5.282;2022-11-20T00:56:03;21.17;;;10.23;;
70148;SDS011;57514;52.164;5.282;2022-11-20T00:58:32;12.07;;;5.80;;
70148;SDS011;57514;52.164;5.282;2022-11-20T01:01:03;22.33;;;10.20;;
70148;SDS011;57514;52.164;5.282;2022-11-20T01:03:31;20.92;;;9.52;;
70148;SDS011;57514;52.164;5.282;2022-11-20T01:05:59;22.35;;;9.82;;
70148;SDS011;57514;52.164;5.282;2022-11-20T01:08:31;24.52;;;8.90;;
70148;SDS011;57514;52.164;5.282;2022-11-20T01:10:59;19.20;;;9.75;;
70148;SDS011;57514;52.164;5.282;2022-11-20T01:13:26;15.98;;;7.47;;
70148;SDS011;57514;52.164;5.282;2022-11-20T01:16:10;20.15;;;9.07;;
70148;SDS011;57514;52.164;5.282;2022-11-20T01:18:38;19.73;;;9.10;;
70148;SDS011;57514;52.164;5.282;2022-11-20T01:21:09;19.20;;;9.10;;
70148;SDS011;57514;52.164;5.282;2022-11-20T01:23:40;23.02;;;12.40;;
70148;SDS011;57514;52.164;5.282;2022-11-20T01:26:10;23.15;;;10.90;;
70148;SDS011;57514;52.164;5.282;2022-11-20T01:28:39;22.00;;;9.82;;
70148;SDS011;57514;52.164;5.282;2022-11-20T01:31:26;25.02;;;12.77;;
70148;SDS011;57514;52.164;5.282;2022-11-20T01:33:55;24.83;;;11.25;;
70148;SDS011;57514;52.164;5.282;2022-11-20T01:36:24;22.67;;;9.38;;
70148;SDS011;57514;52.164;5.282;2022-11-20T01:38:56;23.77;;;11.15;;
70148;SDS011;57514;52.164;5.282;2022-11-20T01:41:27;23.85;;;11.38;;
70148;SDS011;57514;52.164;5.282;2022-11-20T01:44:14;26.38;;;13.02;;
70148;SDS011;57514;52.164;5.282;2022-11-20T01:46:51;22.65;;;11.02;;
70148;SDS011;57514;52.164;5.282;2022-11-20T01:49:20;22.60;;;10.98;;
70148;SDS011;57514;52.164;5.282;2022-11-20T01:52:03;20.55;;;10.25;;
70148;SDS011;57514;52.164;5.282;2022-11-20T01:54:34;22.08;;;9.65;;
70148;SDS011;57514;52.164;5.282;2022-11-20T01:59:29;19.83;;;9.23;;
70148;SDS011;57514;52.164;5.282;2022-11-20T02:01:57;22.48;;;10.23;;
70148;SDS011;57514;52.164;5.282;2022-11-20T02:04:24;13.52;;;7.28;;
70148;SDS011;57514;52.164;5.282;2022-11-20T02:06:59;7.72;;;4.22;;
70148;SDS011;57514;52.164;5.282;2022-11-20T02:09:28;14.85;;;6.60;;
70148;SDS011;57514;52.164;5.282;2022-11-20T02:11:55;18.92;;;7.85;;
70148;SDS011;57514;52.164;5.282;2022-11-20T02:14:23;21.75;;;9.57;;
70148;SDS011;57514;52.164;5.282;2022-11-20T02:16:51;21.98;;;10.70;;
70148;SDS011;57514;52.164;5.282;2022-11-20T02:19:28;21.55;;;9.98;;
70148;SDS011;57514;52.164;5.282;2022-11-20T02:24:26;28.30;;;13.93;;
70148;SDS011;57514;52.164;5.282;2022-11-20T02:26:55;20.45;;;9.90;;
70148;SDS011;57514;52.164;5.282;2022-11-20T02:29:25;19.15;;;8.80;;
70148;SDS011;57514;52.164;5.282;2022-11-20T02:31:53;24.08;;;10.40;;
70148;SDS011;57514;52.164;5.282;2022-11-20T02:34:21;24.27;;;10.80;;
70148;SDS011;57514;52.164;5.282;2022-11-20T02:36:49;23.55;;;11.43;;
70148;SDS011;57514;52.164;5.282;2022-11-20T02:39:17;24.35;;;10.45;;
70148;SDS011;57514;52.164;5.282;2022-11-20T02:41:46;19.88;;;8.82;;
70148;SDS011;57514;52.164;5.282;2022-11-20T02:44:13;21.00;;;10.45;;
70148;SDS011;57514;52.164;5.282;2022-11-20T02:46:41;24.52;;;10.10;;
70148;SDS011;57514;52.164;5.282;2022-11-20T02:49:08;22.30;;;9.85;;
70148;SDS011;57514;52.164;5.282;2022-11-20T02:51:35;20.10;;;9.90;;
70148;SDS011;57514;52.164;5.282;2022-11-20T02:54:03;23.15;;;10.45;;
70148;SDS011;57514;52.164;5.282;2022-11-20T02:56:30;16.60;;;8.50;;
70148;SDS011;57514;52.164;5.282;2022-11-20T02:58:57;24.80;;;10.13;;
70148;SDS011;57514;52.164;5.282;2022-11-20T03:01:24;22.75;;;10.70;;
70148;SDS011;57514;52.164;5.282;2022-11-20T03:03:52;25.23;;;11.75;;
70148;SDS011;57514;52.164;5.282;2022-11-20T03:06:20;19.95;;;7.90;;
70148;SDS011;57514;52.164;5.282;2022-11-20T03:08:47;22.90;;;10.48;;
70148;SDS011;57514;52.164;5.282;2022-11-20T03:11:14;23.10;;;9.90;;
70148;SDS011;57514;52.164;5.282;2022-11-20T03:13:42;18.05;;;8.90;;
70148;SDS011;57514;52.164;5.282;2022-11-20T03:16:13;17.70;;;8.63;;
70148;SDS011;57514;52.164;5.282;2022-11-20T03:18:40;20.85;;;9.55;;
70148;SDS011;57514;52.164;5.282;2022-11-20T03:21:08;15.32;;;7.68;;
70148;SDS011;57514;52.164;5.282;2022-11-20T03:23:36;24.23;;;10.73;;
70148;SDS011;57514;52.164;5.282;2022-11-20T03:26:07;23.38;;;10.45;;
70148;SDS011;57514;52.164;5.282;2022-11-20T03:31:05;20.48;;;7.70;;
70148;SDS011;57514;52.164;5.282;2022-11-20T03:33:32;25.52;;;11.70;;
70148;SDS011;57514;52.164;5.282;2022-11-20T03:36:07;26.92;;;11.25;;
70148;SDS011;57514;52.164;5.282;2022-11-20T03:38:35;22.35;;;8.55;;
70148;SDS011;57514;52.164;5.282;2022-11-20T03:41:03;21.13;;;9.60;;
70148;SDS011;57514;52.164;5.282;2022-11-20T03:43:30;23.48;;;9.40;;
70148;SDS011;57514;52.164;5.282;2022-11-20T03:45:59;19.70;;;9.40;;
70148;SDS011;57514;52.164;5.282;2022-11-20T03:48:26;25.70;;;12.07;;
70148;SDS011;57514;52.164;5.282;2022-11-20T03:51:07;21.10;;;8.95;;
70148;SDS011;57514;52.164;5.282;2022-11-20T03:53:34;23.05;;;9.38;;
70148;SDS011;57514;52.164;5.282;2022-11-20T03:56:02;20.60;;;10.13;;
70148;SDS011;57514;52.164;5.282;2022-11-20T03:58:29;18.92;;;8.55;;
70148;SDS011;57514;52.164;5.282;2022-11-20T04:00:56;18.30;;;8.40;;
70148;SDS011;57514;52.164;5.282;2022-11-20T04:03:24;21.90;;;10.40;;
70148;SDS011;57514;52.164;5.282;2022-11-20T04:05:52;18.45;;;8.60;;
70148;SDS011;57514;52.164;5.282;2022-11-20T04:08:19;20.20;;;9.15;;
70148;SDS011;57514;52.164;5.282;2022-11-20T04:10:46;16.23;;;7.97;;
70148;SDS011;57514;52.164;5.282;2022-11-20T04:13:13;20.17;;;8.95;;
70148;SDS011;57514;52.164;5.282;2022-11-20T04:15:40;19.30;;;8.45;;
70148;SDS011;57514;52.164;5.282;2022-11-20T04:18:07;20.67;;;9.30;;
70148;SDS011;57514;52.164;5.282;2022-11-20T04:20:35;18.55;;;8.40;;
70148;SDS011;57514;52.164;5.282;2022-11-20T04:23:02;13.88;;;6.47;;
70148;SDS011;57514;52.164;5.282;2022-11-20T04:25:29;17.00;;;8.38;;
70148;SDS011;57514;52.164;5.282;2022-11-20T04:27:56;15.13;;;6.88;;
70148;SDS011;57514;52.164;5.282;2022-11-20T04:30:23;16.77;;;8.38;;
70148;SDS011;57514;52.164;5.282;2022-11-20T04:32:50;19.52;;;7.45;;
70148;SDS011;57514;52.164;5.282;2022-11-20T04:35:18;19.15;;;8.48;;
70148;SDS011;57514;52.164;5.282;2022-11-20T04:37:46;21.75;;;8.73;;
70148;SDS011;57514;52.164;5.282;2022-11-20T04:40:13;14.93;;;6.85;;
70148;SDS011;57514;52.164;5.282;2022-11-20T04:42:40;20.52;;;9.23;;
70148;SDS011;57514;52.164;5.282;2022-11-20T04:45:07;19.25;;;8.88;;
70148;SDS011;57514;52.164;5.282;2022-11-20T04:47:34;16.23;;;7.97;;
70148;SDS011;57514;52.164;5.282;2022-11-20T04:50:02;15.98;;;7.68;;
70148;SDS011;57514;52.164;5.282;2022-11-20T04:52:29;17.35;;;8.00;;
70148;SDS011;57514;52.164;5.282;2022-11-20T04:54:56;25.42;;;9.38;;
70148;SDS011;57514;52.164;5.282;2022-11-20T04:57:27;21.02;;;9.18;;
70148;SDS011;57514;52.164;5.282;2022-11-20T04:59:54;20.20;;;7.80;;
70148;SDS011;57514;52.164;5.282;2022-11-20T05:02:22;16.17;;;8.30;;
70148;SDS011;57514;52.164;5.282;2022-11-20T05:04:52;18.98;;;9.25;;
70148;SDS011;57514;52.164;5.282;2022-11-20T05:07:20;19.17;;;8.38;;
70148;SDS011;57514;52.164;5.282;2022-11-20T05:09:47;18.33;;;9.10;;
70148;SDS011;57514;52.164;5.282;2022-11-20T05:12:14;14.30;;;6.45;;
70148;SDS011;57514;52.164;5.282;2022-11-20T05:14:41;18.83;;;9.07;;
70148;SDS011;57514;52.164;5.282;2022-11-20T05:17:11;11.40;;;5.55;;
70148;SDS011;57514;52.164;5.282;2022-11-20T05:19:38;16.80;;;7.15;;
70148;SDS011;57514;52.164;5.282;2022-11-20T05:22:05;17.30;;;7.10;;
70148;SDS011;57514;52.164;5.282;2022-11-20T05:24:32;16.48;;;6.50;;
70148;SDS011;57514;52.164;5.282;2022-11-20T05:27:00;15.98;;;6.95;;
70148;SDS011;57514;52.164;5.282;2022-11-20T05:29:27;20.85;;;8.75;;
70148;SDS011;57514;52.164;5.282;2022-11-20T05:31:54;18.15;;;7.57;;
70148;SDS011;57514;52.164;5.282;2022-11-20T05:34:21;16.02;;;6.70;;
70148;SDS011;57514;52.164;5.282;2022-11-20T05:36:48;13.10;;;5.35;;
70148;SDS011;57514;52.164;5.282;2022-11-20T05:39:15;15.10;;;6.50;;
70148;SDS011;57514;52.164;5.282;2022-11-20T05:41:42;17.45;;;7.57;;
70148;SDS011;57514;52.164;5.282;2022-11-20T05:44:10;20.20;;;9.38;;
70148;SDS011;57514;52.164;5.282;2022-11-20T05:46:37;17.80;;;7.75;;
70148;SDS011;57514;52.164;5.282;2022-11-20T05:49:04;17.50;;;7.78;;
70148;SDS011;57514;52.164;5.282;2022-11-20T05:51:31;17.92;;;6.95;;
70148;SDS011;57514;52.164;5.282;2022-11-20T05:53:58;12.13;;;5.60;;
70148;SDS011;57514;52.164;5.282;2022-11-20T05:56:25;16.17;;;9.40;;
70148;SDS011;57514;52.164;5.282;2022-11-20T05:58:53;19.65;;;7.45;;
70148;SDS011;57514;52.164;5.282;2022-11-20T06:01:21;14.60;;;5.93;;
70148;SDS011;57514;52.164;5.282;2022-11-20T06:03:49;12.40;;;5.38;;
70148;SDS011;57514;52.164;5.282;2022-11-20T06:06:17;16.58;;;7.50;;
70148;SDS011;57514;52.164;5.282;2022-11-20T06:08:44;18.88;;;7.22;;
70148;SDS011;57514;52.164;5.282;2022-11-20T06:11:12;13.73;;;5.40;;
70148;SDS011;57514;52.164;5.282;2022-11-20T06:13:39;17.13;;;8.23;;
70148;SDS011;57514;52.164;5.282;2022-11-20T06:16:08;13.05;;;5.35;;
70148;SDS011;57514;52.164;5.282;2022-11-20T06:18:35;15.40;;;6.65;;
70148;SDS011;57514;52.164;5.282;2022-11-20T06:21:04;17.58;;;8.15;;
70148;SDS011;57514;52.164;5.282;2022-11-20T06:23:31;18.67;;;7.60;;
70148;SDS011;57514;52.164;5.282;2022-11-20T06:26:06;15.95;;;7.00;;
70148;SDS011;57514;52.164;5.282;2022-11-20T06:28:34;17.17;;;7.03;;
70148;SDS011;57514;52.164;5.282;2022-11-20T06:31:01;19.33;;;8.70;;
70148;SDS011;57514;52.164;5.282;2022-11-20T06:33:28;18.40;;;8.40;;
70148;SDS011;57514;52.164;5.282;2022-11-20T06:35:56;10.40;;;5.13;;
70148;SDS011;57514;52.164;5.282;2022-11-20T06:38:28;16.63;;;7.93;;
70148;SDS011;57514;52.164;5.282;2022-11-20T06:40:56;16.27;;;7.18;;
70148;SDS011;57514;52.164;5.282;2022-11-20T06:43:23;13.98;;;5.78;;
70148;SDS011;57514;52.164;5.282;2022-11-20T06:45:53;15.95;;;6.97;;
70148;SDS011;57514;52.164;5.282;2022-11-20T06:48:21;15.18;;;6.55;;
70148;SDS011;57514;52.164;5.282;2022-11-20T06:50:49;18.73;;;7.53;;
70148;SDS011;57514;52.164;5.282;2022-11-20T06:53:18;18.00;;;7.85;;
70148;SDS011;57514;52.164;5.282;2022-11-20T06:55:46;16.17;;;6.60;;
70148;SDS011;57514;52.164;5.282;2022-11-20T06:58:14;18.45;;;8.02;;
70148;SDS011;57514;52.164;5.282;2022-11-20T07:00:41;14.30;;;6.28;;
70148;SDS011;57514;52.164;5.282;2022-11-20T07:03:09;17.35;;;7.38;;
70148;SDS011;57514;52.164;5.282;2022-11-20T07:05:36;15.65;;;6.65;;
70148;SDS011;57514;52.164;5.282;2022-11-20T07:08:04;20.35;;;7.45;;
70148;SDS011;57514;52.164;5.282;2022-11-20T07:10:31;17.60;;;6.97;;
70148;SDS011;57514;52.164;5.282;2022-11-20T07:12:59;23.60;;;7.15;;
70148;SDS011;57514;52.164;5.282;2022-11-20T07:15:26;12.75;;;5.93;;
70148;SDS011;57514;52.164;5.282;2022-11-20T07:17:53;17.45;;;8.27;;
70148;SDS011;57514;52.164;5.282;2022-11-20T07:20:20;8.70;;;3.50;;
70148;SDS011;57514;52.164;5.282;2022-11-20T07:22:52;15.95;;;6.45;;
70148;SDS011;57514;52.164;5.282;2022-11-20T07:25:20;17.30;;;8.05;;
70148;SDS011;57514;52.164;5.282;2022-11-20T07:27:47;18.33;;;6.95;;
70148;SDS011;57514;52.164;5.282;2022-11-20T07:30:17;19.40;;;8.25;;
70148;SDS011;57514;52.164;5.282;2022-11-20T07:32:50;15.10;;;6.45;;
70148;SDS011;57514;52.164;5.282;2022-11-20T07:35:18;14.85;;;7.03;;
70148;SDS011;57514;52.164;5.282;2022-11-20T07:37:45;16.30;;;8.32;;
70148;SDS011;57514;52.164;5.282;2022-11-20T07:40:13;17.77;;;6.85;;
70148;SDS011;57514;52.164;5.282;2022-11-20T07:42:50;17.15;;;7.55;;
70148;SDS011;57514;52.164;5.282;2022-11-20T07:45:18;15.07;;;6.97;;
70148;SDS011;57514;52.164;5.282;2022-11-20T07:47:45;14.05;;;6.43;;
70148;SDS011;57514;52.164;5.282;2022-11-20T07:50:12;18.42;;;7.70;;
70148;SDS011;57514;52.164;5.282;2022-11-20T07:52:40;18.42;;;7.70;;
70148;SDS011;57514;52.164;5.282;2022-11-20T07:55:07;28.80;;;13.13;;
70148;SDS011;57514;52.164;5.282;2022-11-20T07:57:35;48.58;;;21.00;;
70148;SDS011;57514;52.164;5.282;2022-11-20T08:00:03;58.55;;;23.20;;
70148;SDS011;57514;52.164;5.282;2022-11-20T08:02:37;33.60;;;14.60;;
70148;SDS011;57514;52.164;5.282;2022-11-20T08:05:05;24.52;;;10.00;;
70148;SDS011;57514;52.164;5.282;2022-11-20T08:07:39;16.90;;;7.75;;
70148;SDS011;57514;52.164;5.282;2022-11-20T08:10:07;20.67;;;9.40;;
70148;SDS011;57514;52.164;5.282;2022-11-20T08:12:35;23.27;;;9.38;;
70148;SDS011;57514;52.164;5.282;2022-11-20T08:15:21;21.33;;;8.95;;
70148;SDS011;57514;52.164;5.282;2022-11-20T08:17:48;22.33;;;10.75;;
70148;SDS011;57514;52.164;5.282;2022-11-20T08:20:35;21.05;;;9.07;;
70148;SDS011;57514;52.164;5.282;2022-11-20T08:23:03;22.00;;;9.23;;
70148;SDS011;57514;52.164;5.282;2022-11-20T08:25:34;23.42;;;9.93;;
70148;SDS011;57514;52.164;5.282;2022-11-20T08:28:03;23.73;;;10.55;;
70148;SDS011;57514;52.164;5.282;2022-11-20T08:30:45;21.48;;;9.57;;
70148;SDS011;57514;52.164;5.282;2022-11-20T08:33:12;20.15;;;9.23;;
70148;SDS011;57514;52.164;5.282;2022-11-20T08:35:39;21.95;;;10.07;;
70148;SDS011;57514;52.164;5.282;2022-11-20T08:38:08;31.70;;;15.48;;
70148;SDS011;57514;52.164;5.282;2022-11-20T08:40:35;25.98;;;13.13;;
70148;SDS011;57514;52.164;5.282;2022-11-20T08:43:02;25.05;;;11.55;;
70148;SDS011;57514;52.164;5.282;2022-11-20T08:45:30;25.50;;;12.43;;
70148;SDS011;57514;52.164;5.282;2022-11-20T08:48:00;22.20;;;11.05;;
70148;SDS011;57514;52.164;5.282;2022-11-20T08:50:28;29.77;;;13.43;;
70148;SDS011;57514;52.164;5.282;2022-11-20T08:53:05;21.20;;;11.48;;
70148;SDS011;57514;52.164;5.282;2022-11-20T08:55:32;20.90;;;8.82;;
70148;SDS011;57514;52.164;5.282;2022-11-20T08:58:05;20.83;;;9.38;;
70148;SDS011;57514;52.164;5.282;2022-11-20T09:00:33;20.42;;;8.55;;
70148;SDS011;57514;52.164;5.282;2022-11-20T09:03:03;23.77;;;10.02;;
70148;SDS011;57514;52.164;5.282;2022-11-20T09:05:30;20.85;;;9.95;;
70148;SDS011;57514;52.164;5.282;2022-11-20T09:07:57;21.20;;;11.18;;
70148;SDS011;57514;52.164;5.282;2022-11-20T09:10:27;23.45;;;10.63;;
70148;SDS011;57514;52.164;5.282;2022-11-20T09:12:54;28.15;;;12.27;;
70148;SDS011;57514;52.164;5.282;2022-11-20T09:15:22;24.88;;;12.95;;
70148;SDS011;57514;52.164;5.282;2022-11-20T09:18:12;24.17;;;12.13;;
70148;SDS011;57514;52.164;5.282;2022-11-20T09:20:37;26.30;;;11.73;;
70148;SDS011;57514;52.164;5.282;2022-11-20T09:23:04;24.10;;;12.13;;
70148;SDS011;57514;52.164;5.282;2022-11-20T09:25:31;21.23;;;9.73;;
70148;SDS011;57514;52.164;5.282;2022-11-20T09:27:59;23.10;;;10.80;;
70148;SDS011;57514;52.164;5.282;2022-11-20T09:30:26;23.58;;;9.95;;
70148;SDS011;57514;52.164;5.282;2022-11-20T09:32:53;16.50;;;8.02;;
70148;SDS011;57514;52.164;5.282;2022-11-20T09:35:20;21.48;;;10.60;;
70148;SDS011;57514;52.164;5.282;2022-11-20T09:37:48;22.75;;;10.18;;
70148;SDS011;57514;52.164;5.282;2022-11-20T09:40:28;22.05;;;9.57;;
70148;SDS011;57514;52.164;5.282;2022-11-20T09:45:50;24.55;;;10.98;;
70148;SDS011;57514;52.164;5.282;2022-11-20T09:56:12;22.65;;;11.15;;
70148;SDS011;57514;52.164;5.282;2022-11-20T09:58:53;25.83;;;11.43;;
70148;SDS011;57514;52.164;5.282;2022-11-20T10:01:23;29.08;;;13.52;;
70148;SDS011;57514;52.164;5.282;2022-11-20T10:06:41;25.63;;;11.98;;
70148;SDS011;57514;52.164;5.282;2022-11-20T10:11:58;21.15;;;10.73;;
70148;SDS011;57514;52.164;5.282;2022-11-20T10:14:31;25.50;;;12.27;;
70148;SDS011;57514;52.164;5.282;2022-11-20T10:17:08;24.38;;;12.00;;
70148;SDS011;57514;52.164;5.282;2022-11-20T10:24:45;23.92;;;10.90;;
70148;SDS011;57514;52.164;5.282;2022-11-20T10:29:52;25.05;;;12.10;;
70148;SDS011;57514;52.164;5.282;2022-11-20T10:32:30;22.60;;;11.82;;
70148;SDS011;57514;52.164;5.282;2022-11-20T10:37:46;25.30;;;11.93;;
70148;SDS011;57514;52.164;5.282;2022-11-20T10:40:27;26.98;;;11.88;;
70148;SDS011;57514;52.164;5.282;2022-11-20T10:42:57;29.77;;;12.70;;
70148;SDS011;57514;52.164;5.282;2022-11-20T10:53:53;29.27;;;12.02;;
70148;SDS011;57514;52.164;5.282;2022-11-20T10:56:28;28.05;;;12.82;;
70148;SDS011;57514;52.164;5.282;2022-11-20T11:01:27;32.08;;;16.08;;
70148;SDS011;57514;52.164;5.282;2022-11-20T11:03:55;32.05;;;14.05;;
70148;SDS011;57514;52.164;5.282;2022-11-20T11:06:36;31.42;;;15.13;;
70148;SDS011;57514;52.164;5.282;2022-11-20T11:09:08;33.20;;;13.32;;
70148;SDS011;57514;52.164;5.282;2022-11-20T11:11:37;30.75;;;14.07;;
70148;SDS011;57514;52.164;5.282;2022-11-20T11:14:09;32.97;;;14.90;;
70148;SDS011;57514;52.164;5.282;2022-11-20T11:16:40;33.97;;;13.70;;
70148;SDS011;57514;52.164;5.282;2022-11-20T11:19:16;29.45;;;13.90;;
70148;SDS011;57514;52.164;5.282;2022-11-20T11:21:47;29.75;;;13.57;;
70148;SDS011;57514;52.164;5.282;2022-11-20T11:27:11;31.67;;;14.68;;
70148;SDS011;57514;52.164;5.282;2022-11-20T11:29:42;30.30;;;14.27;;
70148;SDS011;57514;52.164;5.282;2022-11-20T11:32:13;28.65;;;13.27;;
70148;SDS011;57514;52.164;5.282;2022-11-20T11:34:41;28.85;;;14.50;;
70148;SDS011;57514;52.164;5.282;2022-11-20T11:37:18;30.40;;;14.55;;
70148;SDS011;57514;52.164;5.282;2022-11-20T11:39:47;32.65;;;14.85;;
70148;SDS011;57514;52.164;5.282;2022-11-20T11:42:35;32.47;;;14.75;;
70148;SDS011;57514;52.164;5.282;2022-11-20T11:45:07;36.67;;;14.90;;
70148;SDS011;57514;52.164;5.282;2022-11-20T11:47:43;31.88;;;15.30;;
70148;SDS011;57514;52.164;5.282;2022-11-20T11:58:02;36.35;;;16.55;;
70148;SDS011;57514;52.164;5.282;2022-11-20T12:00:31;30.60;;;16.15;;
70148;SDS011;57514;52.164;5.282;2022-11-20T12:03:08;33.10;;;15.18;;
70148;SDS011;57514;52.164;5.282;2022-11-20T12:05:38;29.52;;;13.73;;
70148;SDS011;57514;52.164;5.282;2022-11-20T12:08:19;35.45;;;17.00;;
70148;SDS011;57514;52.164;5.282;2022-11-20T12:10:50;30.90;;;13.95;;
70148;SDS011;57514;52.164;5.282;2022-11-20T12:15:55;35.95;;;17.83;;
70148;SDS011;57514;52.164;5.282;2022-11-20T12:18:22;39.00;;;17.65;;
70148;SDS011;57514;52.164;5.282;2022-11-20T12:21:05;30.63;;;13.82;;
70148;SDS011;57514;52.164;5.282;2022-11-20T12:34:38;44.20;;;21.02;;
70148;SDS011;57514;52.164;5.282;2022-11-20T12:37:20;39.28;;;18.23;;
70148;SDS011;57514;52.164;5.282;2022-11-20T12:39:50;47.60;;;23.92;;
70148;SDS011;57514;52.164;5.282;2022-11-20T12:45:22;45.25;;;18.58;;
70148;SDS011;57514;52.164;5.282;2022-11-20T12:48:02;42.88;;;19.00;;
70148;SDS011;57514;52.164;5.282;2022-11-20T12:53:54;40.80;;;18.33;;
70148;SDS011;57514;52.164;5.282;2022-11-20T12:59:03;31.33;;;16.27;;
70148;SDS011;57514;52.164;5.282;2022-11-20T13:01:40;26.70;;;12.85;;
70148;SDS011;57514;52.164;5.282;2022-11-20T13:07:01;34.80;;;15.75;;
70148;SDS011;57514;52.164;5.282;2022-11-20T13:09:31;32.20;;;14.68;;
70148;SDS011;57514;52.164;5.282;2022-11-20T13:12:04;35.53;;;16.75;;
70148;SDS011;57514;52.164;5.282;2022-11-20T13:17:19;28.92;;;13.70;;
70148;SDS011;57514;52.164;5.282;2022-11-20T13:19:55;38.78;;;17.33;;
70148;SDS011;57514;52.164;5.282;2022-11-20T13:22:28;29.42;;;13.38;;
70148;SDS011;57514;52.164;5.282;2022-11-20T13:24:55;27.98;;;13.82;;
70148;SDS011;57514;52.164;5.282;2022-11-20T13:27:23;25.50;;;12.60;;
70148;SDS011;57514;52.164;5.282;2022-11-20T13:30:12;36.78;;;17.48;;
70148;SDS011;57514;52.164;5.282;2022-11-20T13:35:35;35.58;;;16.92;;
70148;SDS011;57514;52.164;5.282;2022-11-20T13:40:30;32.08;;;15.40;;
70148;SDS011;57514;52.164;5.282;2022-11-20T13:45:53;29.40;;;13.95;;
70148;SDS011;57514;52.164;5.282;2022-11-20T13:48:24;31.38;;;13.77;;
70148;SDS011;57514;52.164;5.282;2022-11-20T13:58:36;39.17;;;17.20;;
70148;SDS011;57514;52.164;5.282;2022-11-20T14:01:08;37.17;;;17.38;;
70148;SDS011;57514;52.164;5.282;2022-11-20T14:03:36;27.95;;;12.68;;
70148;SDS011;57514;52.164;5.282;2022-11-20T14:06:27;39.10;;;17.25;;
70148;SDS011;57514;52.164;5.282;2022-11-20T14:08:55;35.67;;;16.73;;
70148;SDS011;57514;52.164;5.282;2022-11-20T14:11:26;35.75;;;15.63;;
70148;SDS011;57514;52.164;5.282;2022-11-20T14:16:51;28.48;;;14.25;;
70148;SDS011;57514;52.164;5.282;2022-11-20T14:21:49;33.90;;;15.80;;
70148;SDS011;57514;52.164;5.282;2022-11-20T14:24:20;33.70;;;16.40;;
70148;SDS011;57514;52.164;5.282;2022-11-20T14:26:49;36.55;;;15.95;;
70148;SDS011;57514;52.164;5.282;2022-11-20T14:31:44;40.92;;;18.27;;
70148;SDS011;57514;52.164;5.282;2022-11-20T14:34:20;33.83;;;15.43;;
70148;SDS011;57514;52.164;5.282;2022-11-20T14:36:49;27.95;;;13.48;;
70148;SDS011;57514;52.164;5.282;2022-11-20T14:39:20;31.45;;;15.00;;
70148;SDS011;57514;52.164;5.282;2022-11-20T14:41:50;37.30;;;15.63;;
70148;SDS011;57514;52.164;5.282;2022-11-20T14:44:19;37.75;;;17.80;;
70148;SDS011;57514;52.164;5.282;2022-11-20T14:46:48;40.92;;;17.23;;
70148;SDS011;57514;52.164;5.282;2022-11-20T14:49:15;34.70;;;13.95;;
70148;SDS011;57514;52.164;5.282;2022-11-20T14:51:42;46.25;;;19.75;;
70148;SDS011;57514;52.164;5.282;2022-11-20T14:54:11;34.17;;;15.95;;
70148;SDS011;57514;52.164;5.282;2022-11-20T14:56:56;44.40;;;17.50;;
70148;SDS011;57514;52.164;5.282;2022-11-20T14:59:28;34.95;;;13.65;;
70148;SDS011;57514;52.164;5.282;2022-11-20T15:02:04;44.85;;;19.13;;
70148;SDS011;57514;52.164;5.282;2022-11-20T15:04:32;44.10;;;19.30;;
70148;SDS011;57514;52.164;5.282;2022-11-20T15:06:59;41.33;;;17.98;;
70148;SDS011;57514;52.164;5.282;2022-11-20T15:09:27;46.22;;;19.17;;
70148;SDS011;57514;52.164;5.282;2022-11-20T15:12:25;38.55;;;17.33;;
70148;SDS011;57514;52.164;5.282;2022-11-20T15:14:53;42.47;;;19.20;;
70148;SDS011;57514;52.164;5.282;2022-11-20T15:17:23;78.47;;;34.00;;
70148;SDS011;57514;52.164;5.282;2022-11-20T15:19:51;45.40;;;20.55;;
70148;SDS011;57514;52.164;5.282;2022-11-20T15:22:18;50.85;;;22.38;;
70148;SDS011;57514;52.164;5.282;2022-11-20T15:24:46;29.45;;;12.23;;
70148;SDS011;57514;52.164;5.282;2022-11-20T15:27:13;29.80;;;13.32;;
70148;SDS011;57514;52.164;5.282;2022-11-20T15:29:42;33.30;;;15.05;;
70148;SDS011;57514;52.164;5.282;2022-11-20T15:32:12;36.50;;;15.43;;
70148;SDS011;57514;52.164;5.282;2022-11-20T15:34:39;53.38;;;23.55;;
70148;SDS011;57514;52.164;5.282;2022-11-20T15:37:06;47.80;;;18.70;;
70148;SDS011;57514;52.164;5.282;2022-11-20T15:39:33;36.55;;;17.45;;
70148;SDS011;57514;52.164;5.282;2022-11-20T15:42:01;53.88;;;23.95;;
70148;SDS011;57514;52.164;5.282;2022-11-20T15:44:28;35.53;;;16.05;;
70148;SDS011;57514;52.164;5.282;2022-11-20T15:46:55;38.05;;;16.70;;
70148;SDS011;57514;52.164;5.282;2022-11-20T15:49:25;38.60;;;16.40;;
70148;SDS011;57514;52.164;5.282;2022-11-20T15:51:52;40.28;;;18.08;;
70148;SDS011;57514;52.164;5.282;2022-11-20T15:54:21;57.22;;;27.25;;
70148;SDS011;57514;52.164;5.282;2022-11-20T15:56:49;43.72;;;17.55;;
70148;SDS011;57514;52.164;5.282;2022-11-20T15:59:19;22.25;;;10.32;;
70148;SDS011;57514;52.164;5.282;2022-11-20T16:01:49;39.88;;;18.58;;
70148;SDS011;57514;52.164;5.282;2022-11-20T16:04:17;45.20;;;19.23;;
70148;SDS011;57514;52.164;5.282;2022-11-20T16:06:44;43.65;;;20.85;;
70148;SDS011;57514;52.164;5.282;2022-11-20T16:09:11;75.78;;;35.72;;
70148;SDS011;57514;52.164;5.282;2022-11-20T16:11:42;35.78;;;16.83;;
70148;SDS011;57514;52.164;5.282;2022-11-20T16:14:12;32.15;;;15.80;;
70148;SDS011;57514;52.164;5.282;2022-11-20T16:16:59;53.33;;;20.67;;
70148;SDS011;57514;52.164;5.282;2022-11-20T16:19:27;37.78;;;18.00;;
70148;SDS011;57514;52.164;5.282;2022-11-20T16:21:54;23.02;;;11.85;;
70148;SDS011;57514;52.164;5.282;2022-11-20T16:24:28;34.92;;;17.17;;
70148;SDS011;57514;52.164;5.282;2022-11-20T16:26:57;38.53;;;18.10;;
70148;SDS011;57514;52.164;5.282;2022-11-20T16:29:25;36.50;;;16.17;;
70148;SDS011;57514;52.164;5.282;2022-11-20T16:31:52;32.10;;;14.57;;